Terminal Aerodrome Forecast
Issued by NWS

Home | Current Version | Previous Version | Text Only | Print | Product List | Glossary On
Versions: 1 2 3 4 5 6 7 8 9 10 11 12 13 14 15 16 17 18 19 20 21 22 23 24 25 26 27 28 29 30
000
FTUS41 KOKX 241126
TAFSWF
TAF
KSWF 241126Z 2412/2518 28012KT P6SM BKN050
     FM241400 30015G23KT P6SM BKN040
     FM241800 31016G24KT P6SM SCT250
     FM250000 31012KT P6SM FEW250
     FM250300 32008KT P6SM SCT250
     FM251500 31014KT P6SM SCT250
      AMD NOT SKED=

USA.gov is the U.S. government's official web portal to all federal, state and local government web resources and services.